sensor_id;sensor_type;location;lat;lon;timestamp;P1;durP1;ratioP1;P2;durP2;ratioP2
12429;SDS011;6279;42.192;24.326;2024-03-22T00:00:29;10.53;;;6.80;;
12429;SDS011;6279;42.192;24.326;2024-03-22T00:02:55;11.93;;;7.03;;
12429;SDS011;6279;42.192;24.326;2024-03-22T00:05:20;9.13;;;6.53;;
12429;SDS011;6279;42.192;24.326;2024-03-22T00:07:47;9.97;;;7.17;;
12429;SDS011;6279;42.192;24.326;2024-03-22T00:10:12;11.23;;;7.17;;
12429;SDS011;6279;42.192;24.326;2024-03-22T00:12:39;10.57;;;7.03;;
12429;SDS011;6279;42.192;24.326;2024-03-22T00:15:04;9.40;;;7.23;;
12429;SDS011;6279;42.192;24.326;2024-03-22T00:17:30;13.10;;;7.30;;
12429;SDS011;6279;42.192;24.326;2024-03-22T00:19:56;10.20;;;7.40;;
12429;SDS011;6279;42.192;24.326;2024-03-22T00:22:22;11.10;;;7.60;;
12429;SDS011;6279;42.192;24.326;2024-03-22T00:24:47;11.47;;;7.67;;
12429;SDS011;6279;42.192;24.326;2024-03-22T00:27:12;12.27;;;7.20;;
12429;SDS011;6279;42.192;24.326;2024-03-22T00:29:38;11.00;;;7.17;;
12429;SDS011;6279;42.192;24.326;2024-03-22T00:32:04;11.43;;;7.47;;
12429;SDS011;6279;42.192;24.326;2024-03-22T00:34:30;11.23;;;7.47;;
12429;SDS011;6279;42.192;24.326;2024-03-22T00:36:55;12.80;;;7.23;;
12429;SDS011;6279;42.192;24.326;2024-03-22T00:39:23;11.37;;;7.73;;
12429;SDS011;6279;42.192;24.326;2024-03-22T00:41:48;9.97;;;7.30;;
12429;SDS011;6279;42.192;24.326;2024-03-22T00:44:14;12.03;;;6.83;;
12429;SDS011;6279;42.192;24.326;2024-03-22T00:46:39;10.77;;;7.53;;
12429;SDS011;6279;42.192;24.326;2024-03-22T00:49:05;8.97;;;6.47;;
12429;SDS011;6279;42.192;24.326;2024-03-22T00:51:30;8.23;;;6.47;;
12429;SDS011;6279;42.192;24.326;2024-03-22T00:53:55;9.93;;;6.70;;
12429;SDS011;6279;42.192;24.326;2024-03-22T00:56:21;8.20;;;6.10;;
12429;SDS011;6279;42.192;24.326;2024-03-22T00:58:47;10.27;;;6.47;;
12429;SDS011;6279;42.192;24.326;2024-03-22T01:01:12;8.93;;;6.87;;
12429;SDS011;6279;42.192;24.326;2024-03-22T01:03:38;10.00;;;6.63;;
12429;SDS011;6279;42.192;24.326;2024-03-22T01:06:03;9.80;;;6.63;;
12429;SDS011;6279;42.192;24.326;2024-03-22T01:08:29;11.27;;;6.63;;
12429;SDS011;6279;42.192;24.326;2024-03-22T01:10:54;14.27;;;6.90;;
12429;SDS011;6279;42.192;24.326;2024-03-22T01:13:20;13.07;;;6.70;;
12429;SDS011;6279;42.192;24.326;2024-03-22T01:15:45;9.60;;;7.27;;
12429;SDS011;6279;42.192;24.326;2024-03-22T01:18:11;11.60;;;7.43;;
12429;SDS011;6279;42.192;24.326;2024-03-22T01:20:37;13.73;;;7.97;;
12429;SDS011;6279;42.192;24.326;2024-03-22T01:23:02;12.10;;;7.53;;
12429;SDS011;6279;42.192;24.326;2024-03-22T01:25:28;10.60;;;6.60;;
12429;SDS011;6279;42.192;24.326;2024-03-22T01:27:54;11.13;;;6.90;;
12429;SDS011;6279;42.192;24.326;2024-03-22T01:30:20;10.83;;;7.30;;
12429;SDS011;6279;42.192;24.326;2024-03-22T01:32:46;10.47;;;7.03;;
12429;SDS011;6279;42.192;24.326;2024-03-22T01:35:11;12.77;;;7.83;;
12429;SDS011;6279;42.192;24.326;2024-03-22T01:37:36;12.77;;;8.10;;
12429;SDS011;6279;42.192;24.326;2024-03-22T01:40:02;12.53;;;7.97;;
12429;SDS011;6279;42.192;24.326;2024-03-22T01:42:29;10.53;;;7.73;;
12429;SDS011;6279;42.192;24.326;2024-03-22T01:44:55;10.43;;;6.63;;
12429;SDS011;6279;42.192;24.326;2024-03-22T01:47:20;10.70;;;7.00;;
12429;SDS011;6279;42.192;24.326;2024-03-22T01:49:46;9.80;;;7.37;;
12429;SDS011;6279;42.192;24.326;2024-03-22T01:52:11;9.10;;;7.37;;
12429;SDS011;6279;42.192;24.326;2024-03-22T01:54:37;9.70;;;6.73;;
12429;SDS011;6279;42.192;24.326;2024-03-22T01:57:02;12.77;;;8.03;;
12429;SDS011;6279;42.192;24.326;2024-03-22T01:59:28;10.97;;;7.30;;
12429;SDS011;6279;42.192;24.326;2024-03-22T02:01:54;16.10;;;8.03;;
12429;SDS011;6279;42.192;24.326;2024-03-22T02:04:19;16.63;;;7.27;;
12429;SDS011;6279;42.192;24.326;2024-03-22T02:06:45;12.93;;;7.37;;
12429;SDS011;6279;42.192;24.326;2024-03-22T02:09:10;11.00;;;7.50;;
12429;SDS011;6279;42.192;24.326;2024-03-22T02:11:35;11.00;;;7.43;;
12429;SDS011;6279;42.192;24.326;2024-03-22T02:14:02;9.63;;;7.23;;
12429;SDS011;6279;42.192;24.326;2024-03-22T02:16:28;12.83;;;7.77;;
12429;SDS011;6279;42.192;24.326;2024-03-22T02:18:53;9.50;;;7.13;;
12429;SDS011;6279;42.192;24.326;2024-03-22T02:21:19;11.07;;;6.90;;
12429;SDS011;6279;42.192;24.326;2024-03-22T02:23:44;11.60;;;6.87;;
12429;SDS011;6279;42.192;24.326;2024-03-22T02:26:09;11.70;;;7.80;;
12429;SDS011;6279;42.192;24.326;2024-03-22T02:28:35;10.13;;;7.47;;
12429;SDS011;6279;42.192;24.326;2024-03-22T02:31:01;11.97;;;7.33;;
12429;SDS011;6279;42.192;24.326;2024-03-22T02:33:27;10.20;;;6.70;;
12429;SDS011;6279;42.192;24.326;2024-03-22T02:35:53;9.13;;;7.00;;
12429;SDS011;6279;42.192;24.326;2024-03-22T02:38:18;10.43;;;6.63;;
12429;SDS011;6279;42.192;24.326;2024-03-22T02:40:44;9.53;;;6.20;;
12429;SDS011;6279;42.192;24.326;2024-03-22T02:43:10;10.80;;;6.70;;
12429;SDS011;6279;42.192;24.326;2024-03-22T02:45:36;11.00;;;7.27;;
12429;SDS011;6279;42.192;24.326;2024-03-22T02:48:02;10.60;;;7.13;;
12429;SDS011;6279;42.192;24.326;2024-03-22T02:50:27;11.13;;;7.50;;
12429;SDS011;6279;42.192;24.326;2024-03-22T02:52:53;10.27;;;7.00;;
12429;SDS011;6279;42.192;24.326;2024-03-22T02:55:18;10.10;;;7.03;;
12429;SDS011;6279;42.192;24.326;2024-03-22T02:57:44;9.80;;;7.30;;
12429;SDS011;6279;42.192;24.326;2024-03-22T03:00:09;13.23;;;7.83;;
12429;SDS011;6279;42.192;24.326;2024-03-22T03:02:35;13.37;;;8.03;;
12429;SDS011;6279;42.192;24.326;2024-03-22T03:05:01;10.80;;;7.13;;
12429;SDS011;6279;42.192;24.326;2024-03-22T03:07:27;13.17;;;8.17;;
12429;SDS011;6279;42.192;24.326;2024-03-22T03:09:55;13.67;;;8.57;;
12429;SDS011;6279;42.192;24.326;2024-03-22T03:12:20;16.07;;;8.43;;
12429;SDS011;6279;42.192;24.326;2024-03-22T03:14:46;14.50;;;8.90;;
12429;SDS011;6279;42.192;24.326;2024-03-22T03:17:11;13.50;;;8.83;;
12429;SDS011;6279;42.192;24.326;2024-03-22T03:19:37;14.83;;;8.50;;
12429;SDS011;6279;42.192;24.326;2024-03-22T03:22:02;14.50;;;8.47;;
12429;SDS011;6279;42.192;24.326;2024-03-22T03:24:28;14.53;;;9.20;;
12429;SDS011;6279;42.192;24.326;2024-03-22T03:26:53;13.27;;;8.43;;
12429;SDS011;6279;42.192;24.326;2024-03-22T03:29:19;17.37;;;8.70;;
12429;SDS011;6279;42.192;24.326;2024-03-22T03:31:45;13.60;;;8.40;;
12429;SDS011;6279;42.192;24.326;2024-03-22T03:34:10;11.77;;;8.20;;
12429;SDS011;6279;42.192;24.326;2024-03-22T03:36:36;13.47;;;7.83;;
12429;SDS011;6279;42.192;24.326;2024-03-22T03:39:01;12.20;;;7.87;;
12429;SDS011;6279;42.192;24.326;2024-03-22T03:41:27;11.50;;;7.53;;
12429;SDS011;6279;42.192;24.326;2024-03-22T03:43:52;12.03;;;7.53;;
12429;SDS011;6279;42.192;24.326;2024-03-22T03:46:18;14.30;;;8.37;;
12429;SDS011;6279;42.192;24.326;2024-03-22T03:48:43;9.53;;;6.60;;
12429;SDS011;6279;42.192;24.326;2024-03-22T03:51:08;12.47;;;7.53;;
12429;SDS011;6279;42.192;24.326;2024-03-22T03:53:34;11.43;;;7.43;;
12429;SDS011;6279;42.192;24.326;2024-03-22T03:55:59;12.57;;;8.97;;
12429;SDS011;6279;42.192;24.326;2024-03-22T03:58:25;8.80;;;6.63;;
12429;SDS011;6279;42.192;24.326;2024-03-22T04:00:50;9.93;;;6.13;;
12429;SDS011;6279;42.192;24.326;2024-03-22T04:03:16;7.73;;;5.43;;
12429;SDS011;6279;42.192;24.326;2024-03-22T04:05:41;10.37;;;5.73;;
12429;SDS011;6279;42.192;24.326;2024-03-22T04:08:07;9.70;;;5.57;;
12429;SDS011;6279;42.192;24.326;2024-03-22T04:10:32;10.50;;;5.47;;
12429;SDS011;6279;42.192;24.326;2024-03-22T04:12:58;6.23;;;4.57;;
12429;SDS011;6279;42.192;24.326;2024-03-22T04:15:23;6.83;;;5.23;;
12429;SDS011;6279;42.192;24.326;2024-03-22T04:17:49;7.60;;;4.70;;
12429;SDS011;6279;42.192;24.326;2024-03-22T04:20:14;7.20;;;4.97;;
12429;SDS011;6279;42.192;24.326;2024-03-22T04:22:40;8.30;;;5.17;;
12429;SDS011;6279;42.192;24.326;2024-03-22T04:25:05;9.20;;;5.47;;
12429;SDS011;6279;42.192;24.326;2024-03-22T04:27:31;8.43;;;4.80;;
12429;SDS011;6279;42.192;24.326;2024-03-22T04:29:56;7.00;;;5.40;;
12429;SDS011;6279;42.192;24.326;2024-03-22T04:32:22;10.37;;;5.93;;
12429;SDS011;6279;42.192;24.326;2024-03-22T04:34:50;7.43;;;5.17;;
12429;SDS011;6279;42.192;24.326;2024-03-22T04:37:16;7.53;;;5.03;;
12429;SDS011;6279;42.192;24.326;2024-03-22T04:39:41;6.60;;;5.30;;
12429;SDS011;6279;42.192;24.326;2024-03-22T04:42:07;9.17;;;5.70;;
12429;SDS011;6279;42.192;24.326;2024-03-22T04:44:32;6.90;;;4.63;;
12429;SDS011;6279;42.192;24.326;2024-03-22T04:46:58;7.70;;;5.40;;
12429;SDS011;6279;42.192;24.326;2024-03-22T04:49:24;7.80;;;4.87;;
12429;SDS011;6279;42.192;24.326;2024-03-22T04:51:49;6.50;;;5.10;;
12429;SDS011;6279;42.192;24.326;2024-03-22T04:54:15;8.27;;;5.27;;
12429;SDS011;6279;42.192;24.326;2024-03-22T04:56:40;13.97;;;6.23;;
12429;SDS011;6279;42.192;24.326;2024-03-22T04:59:05;17.20;;;7.27;;
12429;SDS011;6279;42.192;24.326;2024-03-22T05:01:31;7.20;;;5.43;;
12429;SDS011;6279;42.192;24.326;2024-03-22T05:03:56;12.07;;;5.90;;
12429;SDS011;6279;42.192;24.326;2024-03-22T05:06:22;10.83;;;5.93;;
12429;SDS011;6279;42.192;24.326;2024-03-22T05:08:47;7.90;;;5.07;;
12429;SDS011;6279;42.192;24.326;2024-03-22T05:11:13;8.70;;;5.37;;
12429;SDS011;6279;42.192;24.326;2024-03-22T05:13:38;9.60;;;6.20;;
12429;SDS011;6279;42.192;24.326;2024-03-22T05:16:07;11.03;;;6.83;;
12429;SDS011;6279;42.192;24.326;2024-03-22T05:18:32;11.67;;;6.30;;
12429;SDS011;6279;42.192;24.326;2024-03-22T05:20:58;9.00;;;5.10;;
12429;SDS011;6279;42.192;24.326;2024-03-22T05:23:23;8.53;;;5.17;;
12429;SDS011;6279;42.192;24.326;2024-03-22T05:25:48;9.77;;;5.00;;
12429;SDS011;6279;42.192;24.326;2024-03-22T05:28:14;10.80;;;5.20;;
12429;SDS011;6279;42.192;24.326;2024-03-22T05:30:39;7.90;;;4.90;;
12429;SDS011;6279;42.192;24.326;2024-03-22T05:33:05;6.80;;;4.60;;
12429;SDS011;6279;42.192;24.326;2024-03-22T05:35:32;7.20;;;5.07;;
12429;SDS011;6279;42.192;24.326;2024-03-22T05:37:58;9.10;;;4.53;;
12429;SDS011;6279;42.192;24.326;2024-03-22T05:40:23;8.17;;;4.80;;
12429;SDS011;6279;42.192;24.326;2024-03-22T05:42:49;6.93;;;4.60;;
12429;SDS011;6279;42.192;24.326;2024-03-22T05:45:14;9.37;;;5.93;;
12429;SDS011;6279;42.192;24.326;2024-03-22T05:47:40;7.50;;;4.77;;
12429;SDS011;6279;42.192;24.326;2024-03-22T05:50:08;7.67;;;4.90;;
12429;SDS011;6279;42.192;24.326;2024-03-22T05:52:34;8.87;;;4.63;;
12429;SDS011;6279;42.192;24.326;2024-03-22T05:54:59;10.37;;;5.40;;
12429;SDS011;6279;42.192;24.326;2024-03-22T05:57:25;9.30;;;5.37;;
12429;SDS011;6279;42.192;24.326;2024-03-22T05:59:50;14.13;;;6.70;;
12429;SDS011;6279;42.192;24.326;2024-03-22T06:02:16;7.50;;;5.13;;
12429;SDS011;6279;42.192;24.326;2024-03-22T06:04:41;8.57;;;5.60;;
12429;SDS011;6279;42.192;24.326;2024-03-22T06:07:07;12.03;;;5.47;;
12429;SDS011;6279;42.192;24.326;2024-03-22T06:09:33;6.87;;;5.10;;
12429;SDS011;6279;42.192;24.326;2024-03-22T06:12:13;10.10;;;4.60;;
12429;SDS011;6279;42.192;24.326;2024-03-22T06:14:40;8.43;;;4.60;;
12429;SDS011;6279;42.192;24.326;2024-03-22T06:17:06;7.67;;;5.00;;
12429;SDS011;6279;42.192;24.326;2024-03-22T06:19:32;9.00;;;5.23;;
12429;SDS011;6279;42.192;24.326;2024-03-22T06:21:57;8.10;;;5.00;;
12429;SDS011;6279;42.192;24.326;2024-03-22T06:24:22;9.33;;;5.07;;
12429;SDS011;6279;42.192;24.326;2024-03-22T06:26:48;7.27;;;5.73;;
12429;SDS011;6279;42.192;24.326;2024-03-22T06:29:14;8.23;;;5.33;;
12429;SDS011;6279;42.192;24.326;2024-03-22T06:31:41;7.67;;;5.60;;
12429;SDS011;6279;42.192;24.326;2024-03-22T06:34:07;6.80;;;5.33;;
12429;SDS011;6279;42.192;24.326;2024-03-22T06:36:33;6.53;;;5.37;;
12429;SDS011;6279;42.192;24.326;2024-03-22T06:38:58;6.20;;;5.17;;
12429;SDS011;6279;42.192;24.326;2024-03-22T06:41:24;6.20;;;5.20;;
12429;SDS011;6279;42.192;24.326;2024-03-22T06:43:51;7.20;;;5.60;;
12429;SDS011;6279;42.192;24.326;2024-03-22T06:46:16;10.83;;;5.30;;
12429;SDS011;6279;42.192;24.326;2024-03-22T06:48:42;7.63;;;5.60;;
12429;SDS011;6279;42.192;24.326;2024-03-22T06:51:07;9.53;;;6.07;;
12429;SDS011;6279;42.192;24.326;2024-03-22T06:53:33;11.17;;;6.13;;
12429;SDS011;6279;42.192;24.326;2024-03-22T06:55:58;7.50;;;6.40;;
12429;SDS011;6279;42.192;24.326;2024-03-22T06:58:24;9.20;;;6.50;;
12429;SDS011;6279;42.192;24.326;2024-03-22T07:00:50;9.70;;;6.63;;
12429;SDS011;6279;42.192;24.326;2024-03-22T07:03:15;10.17;;;5.87;;
12429;SDS011;6279;42.192;24.326;2024-03-22T07:05:42;11.63;;;5.80;;
12429;SDS011;6279;42.192;24.326;2024-03-22T07:08:08;10.53;;;6.83;;
12429;SDS011;6279;42.192;24.326;2024-03-22T07:10:33;10.83;;;6.43;;
12429;SDS011;6279;42.192;24.326;2024-03-22T07:12:59;10.60;;;6.73;;
12429;SDS011;6279;42.192;24.326;2024-03-22T07:15:24;8.37;;;6.43;;
12429;SDS011;6279;42.192;24.326;2024-03-22T07:17:50;9.33;;;6.73;;
12429;SDS011;6279;42.192;24.326;2024-03-22T07:20:16;11.83;;;7.30;;
12429;SDS011;6279;42.192;24.326;2024-03-22T07:22:41;9.10;;;6.27;;
12429;SDS011;6279;42.192;24.326;2024-03-22T07:25:07;7.23;;;6.10;;
12429;SDS011;6279;42.192;24.326;2024-03-22T07:27:35;8.57;;;6.30;;
12429;SDS011;6279;42.192;24.326;2024-03-22T07:30:01;6.15;;;5.50;;
12429;SDS011;6279;42.192;24.326;2024-03-22T07:32:26;6.97;;;6.10;;
12429;SDS011;6279;42.192;24.326;2024-03-22T07:34:51;9.70;;;6.57;;
12429;SDS011;6279;42.192;24.326;2024-03-22T07:37:17;10.00;;;6.90;;
12429;SDS011;6279;42.192;24.326;2024-03-22T07:39:42;10.50;;;6.47;;
12429;SDS011;6279;42.192;24.326;2024-03-22T07:42:11;9.90;;;6.50;;
12429;SDS011;6279;42.192;24.326;2024-03-22T07:44:36;8.65;;;6.35;;
12429;SDS011;6279;42.192;24.326;2024-03-22T07:47:02;7.78;;;5.60;;
12429;SDS011;6279;42.192;24.326;2024-03-22T07:49:27;8.77;;;5.90;;
12429;SDS011;6279;42.192;24.326;2024-03-22T07:51:52;8.52;;;5.88;;
12429;SDS011;6279;42.192;24.326;2024-03-22T07:54:18;10.35;;;7.10;;
12429;SDS011;6279;42.192;24.326;2024-03-22T07:56:44;10.52;;;9.27;;
12429;SDS011;6279;42.192;24.326;2024-03-22T07:59:10;8.60;;;5.68;;
12429;SDS011;6279;42.192;24.326;2024-03-22T08:01:35;10.80;;;6.50;;
12429;SDS011;6279;42.192;24.326;2024-03-22T08:04:03;12.07;;;6.82;;
12429;SDS011;6279;42.192;24.326;2024-03-22T08:06:29;9.23;;;6.47;;
12429;SDS011;6279;42.192;24.326;2024-03-22T08:08:54;8.38;;;6.68;;
12429;SDS011;6279;42.192;24.326;2024-03-22T08:11:20;10.45;;;6.65;;
12429;SDS011;6279;42.192;24.326;2024-03-22T08:13:45;8.18;;;6.38;;
12429;SDS011;6279;42.192;24.326;2024-03-22T08:16:11;10.75;;;5.93;;
12429;SDS011;6279;42.192;24.326;2024-03-22T08:18:37;7.60;;;6.15;;
12429;SDS011;6279;42.192;24.326;2024-03-22T08:21:02;7.05;;;6.35;;
12429;SDS011;6279;42.192;24.326;2024-03-22T08:23:28;7.70;;;6.25;;
12429;SDS011;6279;42.192;24.326;2024-03-22T08:25:53;10.57;;;6.57;;
12429;SDS011;6279;42.192;24.326;2024-03-22T08:28:19;7.38;;;5.88;;
12429;SDS011;6279;42.192;24.326;2024-03-22T08:30:44;8.55;;;5.95;;
12429;SDS011;6279;42.192;24.326;2024-03-22T08:33:10;7.00;;;5.88;;
12429;SDS011;6279;42.192;24.326;2024-03-22T08:35:39;10.45;;;6.45;;
12429;SDS011;6279;42.192;24.326;2024-03-22T08:38:04;10.27;;;6.65;;
12429;SDS011;6279;42.192;24.326;2024-03-22T08:40:34;7.28;;;6.35;;
12429;SDS011;6279;42.192;24.326;2024-03-22T08:43:03;11.10;;;7.35;;
12429;SDS011;6279;42.192;24.326;2024-03-22T08:45:29;8.38;;;6.88;;
12429;SDS011;6279;42.192;24.326;2024-03-22T08:47:54;7.50;;;5.55;;
12429;SDS011;6279;42.192;24.326;2024-03-22T08:50:19;11.20;;;8.50;;
12429;SDS011;6279;42.192;24.326;2024-03-22T08:52:45;10.05;;;6.88;;
12429;SDS011;6279;42.192;24.326;2024-03-22T08:55:11;9.10;;;6.10;;
12429;SDS011;6279;42.192;24.326;2024-03-22T08:57:36;5.53;;;5.03;;
12429;SDS011;6279;42.192;24.326;2024-03-22T09:00:03;6.90;;;4.53;;
12429;SDS011;6279;42.192;24.326;2024-03-22T09:02:29;5.10;;;4.60;;
12429;SDS011;6279;42.192;24.326;2024-03-22T09:04:55;5.13;;;3.90;;
12429;SDS011;6279;42.192;24.326;2024-03-22T09:07:20;5.57;;;4.55;;
12429;SDS011;6279;42.192;24.326;2024-03-22T09:09:46;5.53;;;4.53;;
12429;SDS011;6279;42.192;24.326;2024-03-22T09:12:11;7.53;;;4.28;;
12429;SDS011;6279;42.192;24.326;2024-03-22T09:14:37;2.78;;;2.30;;
12429;SDS011;6279;42.192;24.326;2024-03-22T09:17:05;5.40;;;3.05;;
12429;SDS011;6279;42.192;24.326;2024-03-22T09:19:30;4.38;;;3.80;;
12429;SDS011;6279;42.192;24.326;2024-03-22T09:21:56;7.07;;;3.63;;
12429;SDS011;6279;42.192;24.326;2024-03-22T09:24:22;7.13;;;4.07;;
12429;SDS011;6279;42.192;24.326;2024-03-22T09:26:47;3.47;;;3.10;;
12429;SDS011;6279;42.192;24.326;2024-03-22T09:29:13;4.43;;;3.40;;
12429;SDS011;6279;42.192;24.326;2024-03-22T09:31:38;3.97;;;3.03;;
12429;SDS011;6279;42.192;24.326;2024-03-22T09:34:04;4.07;;;3.13;;
12429;SDS011;6279;42.192;24.326;2024-03-22T09:36:29;4.93;;;3.20;;
12429;SDS011;6279;42.192;24.326;2024-03-22T09:38:59;6.32;;;4.15;;
12429;SDS011;6279;42.192;24.326;2024-03-22T09:41:27;5.72;;;3.38;;
12429;SDS011;6279;42.192;24.326;2024-03-22T09:43:57;5.35;;;3.65;;
12429;SDS011;6279;42.192;24.326;2024-03-22T09:46:23;7.55;;;3.75;;
12429;SDS011;6279;42.192;24.326;2024-03-22T09:48:49;5.93;;;3.78;;
12429;SDS011;6279;42.192;24.326;2024-03-22T09:51:15;4.30;;;3.67;;
12429;SDS011;6279;42.192;24.326;2024-03-22T09:53:42;8.07;;;3.63;;
12429;SDS011;6279;42.192;24.326;2024-03-22T09:56:09;5.35;;;3.67;;
12429;SDS011;6279;42.192;24.326;2024-03-22T09:58:38;5.60;;;3.20;;
12429;SDS011;6279;42.192;24.326;2024-03-22T10:01:04;6.90;;;3.75;;
12429;SDS011;6279;42.192;24.326;2024-03-22T10:03:30;4.30;;;3.30;;
12429;SDS011;6279;42.192;24.326;2024-03-22T10:05:55;3.55;;;3.05;;
12429;SDS011;6279;42.192;24.326;2024-03-22T10:08:20;4.30;;;2.83;;
12429;SDS011;6279;42.192;24.326;2024-03-22T10:10:46;4.78;;;3.30;;
12429;SDS011;6279;42.192;24.326;2024-03-22T10:13:12;7.60;;;3.60;;
12429;SDS011;6279;42.192;24.326;2024-03-22T10:15:43;3.53;;;2.75;;
12429;SDS011;6279;42.192;24.326;2024-03-22T10:18:09;4.75;;;3.20;;
12429;SDS011;6279;42.192;24.326;2024-03-22T10:20:35;6.40;;;3.30;;
12429;SDS011;6279;42.192;24.326;2024-03-22T10:23:00;3.75;;;2.95;;
12429;SDS011;6279;42.192;24.326;2024-03-22T10:25:26;3.95;;;3.08;;
12429;SDS011;6279;42.192;24.326;2024-03-22T10:27:53;5.47;;;3.40;;
12429;SDS011;6279;42.192;24.326;2024-03-22T10:30:19;5.68;;;3.28;;
12429;SDS011;6279;42.192;24.326;2024-03-22T10:32:44;4.70;;;2.90;;
12429;SDS011;6279;42.192;24.326;2024-03-22T10:35:13;3.60;;;3.00;;
12429;SDS011;6279;42.192;24.326;2024-03-22T10:37:39;4.47;;;3.00;;
12429;SDS011;6279;42.192;24.326;2024-03-22T10:40:05;3.08;;;2.70;;
12429;SDS011;6279;42.192;24.326;2024-03-22T10:42:41;3.63;;;3.08;;
12429;SDS011;6279;42.192;24.326;2024-03-22T10:45:08;4.18;;;2.80;;
12429;SDS011;6279;42.192;24.326;2024-03-22T10:47:35;2.60;;;2.40;;
12429;SDS011;6279;42.192;24.326;2024-03-22T10:50:11;3.70;;;2.50;;
12429;SDS011;6279;42.192;24.326;2024-03-22T10:55:23;2.17;;;1.80;;
12429;SDS011;6279;42.192;24.326;2024-03-22T10:57:59;3.27;;;2.10;;
12429;SDS011;6279;42.192;24.326;2024-03-22T11:00:28;2.60;;;2.10;;
12429;SDS011;6279;42.192;24.326;2024-03-22T11:02:54;5.10;;;2.27;;
12429;SDS011;6279;42.192;24.326;2024-03-22T11:05:20;4.00;;;2.57;;
12429;SDS011;6279;42.192;24.326;2024-03-22T11:07:46;3.57;;;2.20;;
12429;SDS011;6279;42.192;24.326;2024-03-22T11:10:11;3.73;;;2.00;;
12429;SDS011;6279;42.192;24.326;2024-03-22T11:12:40;5.17;;;2.20;;
12429;SDS011;6279;42.192;24.326;2024-03-22T11:15:06;3.90;;;2.38;;
12429;SDS011;6279;42.192;24.326;2024-03-22T11:17:32;3.70;;;2.30;;
12429;SDS011;6279;42.192;24.326;2024-03-22T11:19:57;2.87;;;2.20;;
12429;SDS011;6279;42.192;24.326;2024-03-22T11:22:24;3.57;;;2.47;;
12429;SDS011;6279;42.192;24.326;2024-03-22T11:24:50;3.30;;;2.30;;
12429;SDS011;6279;42.192;24.326;2024-03-22T11:27:17;3.83;;;2.47;;
12429;SDS011;6279;42.192;24.326;2024-03-22T11:29:42;2.60;;;2.33;;
12429;SDS011;6279;42.192;24.326;2024-03-22T11:32:08;2.83;;;2.58;;
12429;SDS011;6279;42.192;24.326;2024-03-22T11:34:37;3.85;;;2.10;;
12429;SDS011;6279;42.192;24.326;2024-03-22T11:37:05;2.95;;;2.10;;
12429;SDS011;6279;42.192;24.326;2024-03-22T11:39:32;5.15;;;2.65;;
12429;SDS011;6279;42.192;24.326;2024-03-22T11:42:00;2.42;;;1.83;;
12429;SDS011;6279;42.192;24.326;2024-03-22T11:44:27;2.60;;;2.37;;
12429;SDS011;6279;42.192;24.326;2024-03-22T11:46:53;4.13;;;2.57;;
12429;SDS011;6279;42.192;24.326;2024-03-22T11:49:18;3.23;;;2.63;;
12429;SDS011;6279;42.192;24.326;2024-03-22T11:51:44;2.83;;;2.50;;
12429;SDS011;6279;42.192;24.326;2024-03-22T11:54:10;2.77;;;2.20;;
12429;SDS011;6279;42.192;24.326;2024-03-22T11:56:35;5.30;;;2.37;;
12429;SDS011;6279;42.192;24.326;2024-03-22T11:59:02;2.70;;;2.30;;
12429;SDS011;6279;42.192;24.326;2024-03-22T12:01:28;3.17;;;2.30;;
12429;SDS011;6279;42.192;24.326;2024-03-22T12:03:54;2.83;;;2.33;;
12429;SDS011;6279;42.192;24.326;2024-03-22T12:06:20;3.92;;;2.40;;
12429;SDS011;6279;42.192;24.326;2024-03-22T12:08:46;3.37;;;2.60;;
12429;SDS011;6279;42.192;24.326;2024-03-22T12:11:12;3.30;;;2.60;;
12429;SDS011;6279;42.192;24.326;2024-03-22T12:13:39;3.63;;;2.40;;
12429;SDS011;6279;42.192;24.326;2024-03-22T12:16:05;3.43;;;2.70;;
12429;SDS011;6279;42.192;24.326;2024-03-22T12:18:32;4.87;;;2.43;;
12429;SDS011;6279;42.192;24.326;2024-03-22T12:20:58;3.57;;;2.07;;
12429;SDS011;6279;42.192;24.326;2024-03-22T12:23:23;3.23;;;2.43;;
12429;SDS011;6279;42.192;24.326;2024-03-22T12:25:52;4.70;;;2.50;;
12429;SDS011;6279;42.192;24.326;2024-03-22T12:28:18;4.97;;;3.30;;
12429;SDS011;6279;42.192;24.326;2024-03-22T12:30:45;3.13;;;2.50;;
12429;SDS011;6279;42.192;24.326;2024-03-22T12:33:11;2.83;;;2.07;;
12429;SDS011;6279;42.192;24.326;2024-03-22T12:35:38;4.67;;;2.77;;
12429;SDS011;6279;42.192;24.326;2024-03-22T12:38:07;2.77;;;2.30;;
12429;SDS011;6279;42.192;24.326;2024-03-22T12:40:35;5.13;;;2.60;;
12429;SDS011;6279;42.192;24.326;2024-03-22T12:43:01;5.47;;;2.60;;
12429;SDS011;6279;42.192;24.326;2024-03-22T12:45:27;3.60;;;2.80;;
12429;SDS011;6279;42.192;24.326;2024-03-22T12:47:52;3.37;;;2.57;;
12429;SDS011;6279;42.192;24.326;2024-03-22T12:50:18;2.70;;;2.23;;
12429;SDS011;6279;42.192;24.326;2024-03-22T12:52:43;4.30;;;2.70;;
12429;SDS011;6279;42.192;24.326;2024-03-22T12:55:10;3.73;;;2.43;;
12429;SDS011;6279;42.192;24.326;2024-03-22T12:57:35;3.50;;;2.50;;
12429;SDS011;6279;42.192;24.326;2024-03-22T13:00:03;4.53;;;2.30;;
12429;SDS011;6279;42.192;24.326;2024-03-22T13:02:37;3.70;;;2.30;;
12429;SDS011;6279;42.192;24.326;2024-03-22T13:05:06;4.33;;;2.60;;
12429;SDS011;6279;42.192;24.326;2024-03-22T13:07:32;2.77;;;2.30;;
12429;SDS011;6279;42.192;24.326;2024-03-22T13:09:57;3.00;;;2.50;;
12429;SDS011;6279;42.192;24.326;2024-03-22T13:12:25;3.67;;;2.07;;
12429;SDS011;6279;42.192;24.326;2024-03-22T13:14:50;3.23;;;2.10;;
12429;SDS011;6279;42.192;24.326;2024-03-22T13:17:17;4.40;;;2.30;;
12429;SDS011;6279;42.192;24.326;2024-03-22T13:19:42;5.63;;;2.30;;
12429;SDS011;6279;42.192;24.326;2024-03-22T13:22:08;3.87;;;2.50;;
12429;SDS011;6279;42.192;24.326;2024-03-22T13:24:36;2.60;;;2.30;;
12429;SDS011;6279;42.192;24.326;2024-03-22T13:27:02;7.90;;;2.93;;
12429;SDS011;6279;42.192;24.326;2024-03-22T13:29:27;3.00;;;2.20;;
12429;SDS011;6279;42.192;24.326;2024-03-22T13:31:53;4.80;;;2.00;;
12429;SDS011;6279;42.192;24.326;2024-03-22T13:34:18;2.77;;;2.30;;
12429;SDS011;6279;42.192;24.326;2024-03-22T13:36:44;4.33;;;2.20;;
12429;SDS011;6279;42.192;24.326;2024-03-22T13:39:12;5.00;;;2.40;;
12429;SDS011;6279;42.192;24.326;2024-03-22T13:41:40;2.27;;;2.00;;
12429;SDS011;6279;42.192;24.326;2024-03-22T13:44:07;2.97;;;2.13;;
12429;SDS011;6279;42.192;24.326;2024-03-22T13:46:33;2.43;;;2.07;;
12429;SDS011;6279;42.192;24.326;2024-03-22T13:49:01;2.47;;;2.00;;
12429;SDS011;6279;42.192;24.326;2024-03-22T13:51:28;2.80;;;2.00;;
12429;SDS011;6279;42.192;24.326;2024-03-22T13:53:54;3.63;;;2.63;;
12429;SDS011;6279;42.192;24.326;2024-03-22T13:56:20;3.00;;;2.47;;
12429;SDS011;6279;42.192;24.326;2024-03-22T13:58:46;2.20;;;1.90;;
12429;SDS011;6279;42.192;24.326;2024-03-22T14:01:11;5.13;;;2.47;;
12429;SDS011;6279;42.192;24.326;2024-03-22T14:03:37;2.77;;;2.20;;
12429;SDS011;6279;42.192;24.326;2024-03-22T14:06:02;2.97;;;2.07;;
12429;SDS011;6279;42.192;24.326;2024-03-22T14:08:28;4.77;;;2.40;;
12429;SDS011;6279;42.192;24.326;2024-03-22T14:10:54;3.70;;;2.40;;
12429;SDS011;6279;42.192;24.326;2024-03-22T14:13:19;6.83;;;2.60;;
12429;SDS011;6279;42.192;24.326;2024-03-22T14:15:45;3.13;;;2.37;;
12429;SDS011;6279;42.192;24.326;2024-03-22T14:18:10;5.07;;;2.33;;
12429;SDS011;6279;42.192;24.326;2024-03-22T14:20:38;8.27;;;2.00;;
12429;SDS011;6279;42.192;24.326;2024-03-22T14:23:03;5.67;;;2.67;;
12429;SDS011;6279;42.192;24.326;2024-03-22T14:25:29;2.80;;;2.30;;
12429;SDS011;6279;42.192;24.326;2024-03-22T14:27:54;2.60;;;2.20;;
12429;SDS011;6279;42.192;24.326;2024-03-22T14:30:20;2.77;;;2.40;;
12429;SDS011;6279;42.192;24.326;2024-03-22T14:32:50;3.90;;;2.50;;
12429;SDS011;6279;42.192;24.326;2024-03-22T14:35:15;5.27;;;3.90;;
12429;SDS011;6279;42.192;24.326;2024-03-22T14:37:44;4.03;;;2.73;;